createdAt,value
2024-03-05T00:01:46.462Z,38.90
2024-03-05T00:04:13.081Z,39.60
2024-03-05T00:06:39.625Z,39.50
2024-03-05T00:09:06.121Z,39.30
2024-03-05T00:11:32.622Z,39.40
2024-03-05T00:13:59.277Z,39.40
2024-03-05T00:16:25.921Z,39.20
2024-03-05T00:18:52.487Z,39.00
2024-03-05T00:21:19.052Z,38.80
2024-03-05T00:23:45.613Z,39.70
2024-03-05T00:26:12.102Z,39.70
2024-03-05T00:31:05.719Z,39.60
2024-03-05T00:33:32.259Z,39.40
2024-03-05T00:35:58.767Z,39.30
2024-03-05T00:38:32.953Z,39.30
2024-03-05T00:41:00.665Z,39.40
2024-03-05T00:43:27.251Z,39.80
2024-03-05T00:45:54.152Z,39.40
2024-03-05T00:48:20.665Z,39.20
2024-03-05T00:50:47.158Z,39.50
2024-03-05T00:53:13.659Z,39.70
2024-03-05T00:55:40.179Z,39.30
2024-03-05T00:58:06.751Z,39.50
2024-03-05T01:00:33.289Z,39.50
2024-03-05T01:02:59.833Z,39.40
2024-03-05T01:05:26.363Z,39.50
2024-03-05T01:07:52.917Z,39.50
2024-03-05T01:10:19.511Z,38.50
2024-03-05T01:12:46.103Z,38.90
2024-03-05T01:15:12.649Z,39.50
2024-03-05T01:17:39.170Z,39.70
2024-03-05T01:20:05.727Z,39.20
2024-03-05T01:22:32.259Z,39.70
2024-03-05T01:24:58.808Z,39.70
2024-03-05T01:27:25.318Z,39.10
2024-03-05T01:29:51.829Z,39.50
2024-03-05T01:32:18.329Z,39.40
2024-03-05T01:37:11.921Z,39.10
2024-03-05T01:39:38.433Z,39.50
2024-03-05T01:42:04.918Z,39.70
2024-03-05T01:44:31.400Z,39.80
2024-03-05T01:46:57.991Z,39.50
2024-03-05T01:49:24.664Z,39.30
2024-03-05T01:51:51.171Z,39.10
2024-03-05T01:54:17.672Z,39.20
2024-03-05T01:56:44.181Z,39.20
2024-03-05T01:59:10.680Z,38.60
2024-03-05T02:01:37.281Z,39.20
2024-03-05T02:04:03.822Z,38.90
2024-03-05T02:06:30.409Z,39.50
2024-03-05T02:08:56.919Z,40.20
2024-03-05T02:11:23.495Z,39.20
2024-03-05T02:13:50.112Z,39.60
2024-03-05T02:16:16.651Z,39.50
2024-03-05T02:18:43.190Z,39.40
2024-03-05T02:21:09.705Z,39.60
2024-03-05T02:23:36.234Z,39.70
2024-03-05T02:26:02.823Z,39.00
2024-03-05T02:28:29.497Z,39.00
2024-03-05T02:30:56.134Z,39.00
2024-03-05T02:33:22.705Z,38.40
2024-03-05T02:35:49.202Z,39.20
2024-03-05T02:38:15.743Z,39.00
2024-03-05T02:40:42.285Z,39.40
2024-03-05T02:43:08.937Z,38.70
2024-03-05T02:45:35.504Z,39.10
2024-03-05T02:48:02.025Z,39.00
2024-03-05T02:50:28.736Z,39.20
2024-03-05T02:52:55.347Z,39.40
2024-03-05T02:55:21.934Z,38.90
2024-03-05T02:57:48.435Z,39.10
2024-03-05T03:00:14.945Z,38.00
2024-03-05T03:02:41.482Z,39.10
2024-03-05T03:05:08.009Z,38.90
2024-03-05T03:07:34.637Z,39.10
2024-03-05T03:10:01.184Z,39.40
2024-03-05T03:12:27.736Z,39.20
2024-03-05T03:14:54.244Z,38.30
2024-03-05T03:17:20.749Z,39.20
2024-03-05T03:19:47.297Z,39.30
2024-03-05T03:22:13.841Z,39.40
2024-03-05T03:24:40.385Z,39.00
2024-03-05T03:27:06.926Z,39.20
2024-03-05T03:29:33.418Z,38.30
2024-03-05T03:31:59.983Z,38.30
2024-03-05T03:34:26.563Z,39.40
2024-03-05T03:36:53.122Z,38.60
2024-03-05T03:39:19.631Z,39.20
2024-03-05T03:44:16.286Z,39.30
2024-03-05T03:46:42.873Z,38.50
2024-03-05T03:49:09.464Z,39.00
2024-03-05T03:51:35.954Z,38.50
2024-03-05T03:54:02.472Z,39.50
2024-03-05T03:56:28.964Z,39.40
2024-03-05T03:58:55.555Z,39.20
2024-03-05T04:01:22.203Z,39.30
2024-03-05T04:03:48.766Z,38.90
2024-03-05T04:06:15.270Z,39.10
2024-03-05T04:08:41.789Z,39.00
2024-03-05T04:11:08.419Z,39.30
2024-03-05T04:16:02.039Z,38.60
2024-03-05T04:18:28.532Z,39.20
2024-03-05T04:20:55.005Z,39.20
2024-03-05T04:25:48.579Z,38.60
2024-03-05T04:28:15.324Z,39.20
2024-03-05T04:30:41.954Z,39.20
2024-03-05T04:33:08.514Z,39.30
2024-03-05T04:35:35.113Z,39.20
2024-03-05T04:38:01.644Z,39.10
2024-03-05T04:40:28.432Z,38.20
2024-03-05T04:42:55.005Z,39.20
2024-03-05T04:45:21.497Z,39.20
2024-03-05T04:47:48.160Z,39.30
2024-03-05T04:50:14.750Z,38.60
2024-03-05T04:52:41.270Z,39.30
2024-03-05T04:55:07.803Z,39.00
2024-03-05T04:57:34.316Z,39.00
2024-03-05T05:00:00.906Z,39.00
2024-03-05T05:02:27.401Z,39.00
2024-03-05T05:04:54.013Z,39.10
2024-03-05T05:07:20.564Z,39.10
2024-03-05T05:09:47.053Z,39.20
2024-03-05T05:12:13.531Z,39.00
2024-03-05T05:17:07.261Z,39.50
2024-03-05T05:19:33.904Z,39.40
2024-03-05T05:22:00.486Z,39.30
2024-03-05T05:24:26.993Z,39.40
2024-03-05T05:26:53.543Z,39.50
2024-03-05T05:29:27.418Z,39.80
2024-03-05T05:32:03.412Z,39.70
2024-03-05T05:34:30.065Z,39.50
2024-03-05T05:36:56.622Z,39.50
2024-03-05T05:39:23.124Z,39.40
2024-03-05T05:41:49.606Z,39.70
2024-03-05T05:44:16.089Z,39.60
2024-03-05T05:46:42.622Z,40.00
2024-03-05T05:49:09.202Z,40.00
2024-03-05T05:51:35.714Z,40.10
2024-03-05T05:54:02.243Z,39.60
2024-03-05T05:56:28.766Z,40.30
2024-03-05T05:58:55.319Z,39.80
2024-03-05T06:01:22.103Z,39.00
2024-03-05T06:03:48.625Z,38.90
2024-03-05T06:06:15.161Z,39.80
2024-03-05T06:08:41.678Z,39.60
2024-03-05T06:11:08.707Z,39.50
2024-03-05T06:13:35.328Z,39.50
2024-03-05T06:16:01.877Z,39.60
2024-03-05T06:18:28.528Z,39.80
2024-03-05T06:20:55.054Z,39.60
2024-03-05T06:23:21.706Z,39.40
2024-03-05T06:25:48.327Z,39.40
2024-03-05T06:28:14.834Z,39.30
2024-03-05T06:30:41.372Z,39.50
2024-03-05T06:33:07.872Z,39.60
2024-03-05T06:35:34.466Z,39.60
2024-03-05T06:38:01.074Z,39.70
2024-03-05T06:40:27.680Z,39.60
2024-03-05T06:42:54.663Z,39.40
2024-03-05T06:45:21.342Z,39.50
2024-03-05T06:47:48.556Z,39.50
2024-03-05T06:50:15.115Z,39.50
2024-03-05T06:52:41.659Z,39.50
2024-03-05T06:55:08.215Z,39.80
2024-03-05T06:57:34.761Z,39.40
2024-03-05T07:00:01.301Z,39.60
2024-03-05T07:02:27.854Z,39.40
2024-03-05T07:04:54.448Z,39.70
2024-03-05T07:07:21.068Z,39.80
2024-03-05T07:09:47.635Z,39.90
2024-03-05T07:12:14.162Z,39.50
2024-03-05T07:14:40.713Z,39.60
2024-03-05T07:17:07.261Z,40.00
2024-03-05T07:22:02.517Z,40.10
2024-03-05T07:24:29.077Z,40.00
2024-03-05T07:27:04.390Z,40.40
2024-03-05T07:29:35.282Z,40.40
2024-03-05T07:32:01.930Z,40.40
2024-03-05T07:34:28.585Z,40.20
2024-03-05T07:36:55.161Z,40.60
2024-03-05T07:39:21.676Z,40.10
2024-03-05T07:41:48.161Z,40.50
2024-03-05T07:44:14.683Z,39.90
2024-03-05T07:46:41.210Z,40.10
2024-03-05T07:49:07.721Z,39.90
2024-03-05T07:51:41.487Z,40.00
2024-03-05T07:54:11.585Z,40.20
2024-03-05T07:56:38.174Z,40.00
2024-03-05T07:59:04.762Z,40.00
2024-03-05T08:01:31.396Z,39.80
2024-03-05T08:03:57.920Z,40.10
2024-03-05T08:06:24.415Z,39.40
2024-03-05T08:08:50.936Z,40.60
2024-03-05T08:13:44.835Z,40.00
2024-03-05T08:18:38.412Z,40.00
2024-03-05T08:21:04.931Z,40.10
2024-03-05T08:23:31.428Z,39.90
2024-03-05T08:25:58.026Z,40.20
2024-03-05T08:28:24.648Z,39.70
2024-03-05T08:30:51.179Z,39.50
2024-03-05T08:33:17.793Z,39.70
2024-03-05T08:35:44.374Z,39.70
2024-03-05T08:38:10.926Z,39.60
2024-03-05T08:40:37.582Z,39.50
2024-03-05T08:45:32.315Z,38.90
2024-03-05T08:47:58.929Z,39.40
2024-03-05T08:50:25.508Z,39.70
2024-03-05T08:52:52.133Z,39.60
2024-03-05T08:57:46.176Z,39.70
2024-03-05T09:00:17.568Z,39.70
2024-03-05T09:02:54.568Z,39.90
2024-03-05T09:05:21.211Z,39.80
2024-03-05T09:07:47.928Z,39.30
2024-03-05T09:10:14.485Z,40.00
2024-03-05T09:12:40.985Z,39.70
2024-03-05T09:15:07.537Z,38.90
2024-03-05T09:17:34.129Z,39.50
2024-03-05T09:20:00.902Z,39.00
2024-03-05T09:22:27.569Z,39.70
2024-03-05T09:24:54.071Z,39.80
2024-03-05T09:27:20.585Z,39.40
2024-03-05T09:29:47.136Z,39.70
2024-03-05T09:32:13.618Z,39.80
2024-03-05T09:34:40.222Z,39.70
2024-03-05T09:37:06.801Z,39.70
2024-03-05T09:39:33.307Z,39.50
2024-03-05T09:44:26.858Z,38.80
2024-03-05T09:49:23.268Z,39.00
2024-03-05T09:51:50.342Z,39.60
2024-03-05T09:54:16.893Z,39.90
2024-03-05T09:56:43.411Z,39.60
2024-03-05T09:59:09.945Z,39.70
2024-03-05T10:04:03.714Z,39.20
2024-03-05T10:06:30.214Z,39.30
2024-03-05T10:11:23.896Z,39.30
2024-03-05T10:13:50.493Z,39.80
2024-03-05T10:16:17.005Z,39.70
2024-03-05T10:18:43.530Z,39.30
2024-03-05T10:23:37.102Z,38.60
2024-03-05T10:26:03.710Z,39.70
2024-03-05T10:28:30.320Z,39.30
2024-03-05T10:33:23.949Z,39.70
2024-03-05T10:35:50.495Z,39.80
2024-03-05T10:40:44.114Z,39.60
2024-03-05T10:43:10.854Z,39.30
2024-03-05T10:45:37.432Z,39.60
2024-03-05T10:48:04.065Z,39.80
2024-03-05T10:50:30.646Z,39.00
2024-03-05T10:52:57.300Z,39.30
2024-03-05T10:57:51.077Z,39.30
2024-03-05T11:00:17.644Z,39.80
2024-03-05T11:05:11.314Z,39.40
2024-03-05T11:10:05.002Z,38.80
2024-03-05T11:12:31.511Z,39.90
2024-03-05T11:14:58.019Z,39.70
2024-03-05T11:19:51.640Z,39.60
2024-03-05T11:22:18.199Z,39.90
2024-03-05T11:24:44.694Z,40.00
2024-03-05T11:27:11.235Z,39.70
2024-03-05T11:29:37.748Z,39.90
2024-03-05T11:32:04.368Z,39.80
2024-03-05T11:34:31.058Z,40.10
2024-03-05T11:36:57.546Z,40.00
2024-03-05T11:44:18.184Z,39.60
2024-03-05T11:46:44.835Z,39.80
2024-03-05T11:49:11.381Z,39.90
2024-03-05T11:51:37.911Z,39.70
2024-03-05T11:54:04.464Z,39.80
2024-03-05T11:56:30.991Z,39.90
2024-03-05T11:58:57.571Z,39.50
2024-03-05T12:01:24.110Z,39.60
2024-03-05T12:03:50.746Z,39.90
2024-03-05T12:06:17.405Z,39.50
2024-03-05T12:08:43.929Z,39.40
2024-03-05T12:11:10.531Z,40.10
2024-03-05T12:13:37.187Z,39.60
2024-03-05T12:18:30.745Z,39.80
2024-03-05T12:20:57.261Z,40.00
2024-03-05T12:23:40.936Z,39.70
2024-03-05T12:26:09.731Z,39.50
2024-03-05T12:28:36.343Z,39.50
2024-03-05T12:31:02.897Z,39.60
2024-03-05T12:33:29.472Z,39.40
2024-03-05T12:35:55.992Z,39.40
2024-03-05T12:40:49.699Z,39.70
2024-03-05T12:43:16.240Z,39.70
2024-03-05T12:48:09.974Z,38.80
2024-03-05T12:50:36.616Z,39.50
2024-03-05T12:53:03.226Z,39.50
2024-03-05T12:55:29.852Z,39.70
2024-03-05T12:57:56.432Z,39.70
2024-03-05T13:00:22.971Z,39.60
2024-03-05T13:02:49.513Z,39.50
2024-03-05T13:07:43.275Z,39.40
2024-03-05T13:10:09.778Z,39.80
2024-03-05T13:12:36.294Z,39.80
2024-03-05T13:15:02.792Z,39.40
2024-03-05T13:17:29.322Z,39.70
2024-03-05T13:19:56.121Z,39.40
2024-03-05T13:22:22.757Z,39.40
2024-03-05T13:24:49.302Z,39.80
2024-03-05T13:27:15.802Z,39.60
2024-03-05T13:29:42.287Z,39.70
2024-03-05T13:32:08.835Z,39.60
2024-03-05T13:34:35.420Z,39.60
2024-03-05T13:39:28.994Z,39.10
2024-03-05T13:41:55.874Z,39.50
2024-03-05T13:44:22.593Z,39.40
2024-03-05T13:46:49.110Z,39.40
2024-03-05T13:49:15.666Z,39.60
2024-03-05T13:54:09.618Z,39.30
2024-03-05T13:56:36.133Z,39.60
2024-03-05T13:59:02.764Z,39.80
2024-03-05T14:01:29.391Z,39.80
2024-03-05T14:03:55.978Z,39.10
2024-03-05T14:08:49.547Z,39.30
2024-03-05T14:11:16.130Z,40.20
2024-03-05T14:16:09.797Z,40.30
2024-03-05T14:18:36.342Z,40.10
2024-03-05T14:21:02.851Z,39.80
2024-03-05T14:25:56.485Z,40.00
2024-03-05T14:28:23.118Z,39.70
2024-03-05T14:30:49.662Z,40.00
2024-03-05T14:33:16.166Z,39.70
2024-03-05T14:35:42.733Z,39.10
2024-03-05T14:38:09.339Z,40.00
2024-03-05T14:40:35.950Z,40.00
2024-03-05T14:43:02.513Z,40.40
2024-03-05T14:45:29.038Z,40.40
2024-03-05T14:47:55.736Z,40.60
2024-03-05T14:50:22.292Z,40.10
2024-03-05T14:55:15.922Z,40.30
2024-03-05T14:57:42.493Z,39.70
2024-03-05T15:00:09.121Z,39.90
2024-03-05T15:02:35.754Z,40.10
2024-03-05T15:07:29.607Z,39.90
2024-03-05T15:09:56.126Z,40.00
2024-03-05T15:12:22.609Z,39.80
2024-03-05T15:14:49.200Z,40.10
2024-03-05T15:17:15.718Z,39.80
2024-03-05T15:19:42.287Z,39.60
2024-03-05T15:27:06.045Z,40.40
2024-03-05T15:32:00.230Z,40.10
2024-03-05T15:34:26.817Z,39.90
2024-03-05T15:36:53.411Z,39.20
2024-03-05T15:39:19.926Z,40.00
2024-03-05T15:41:46.430Z,40.20
2024-03-05T15:44:12.984Z,40.10
2024-03-05T15:46:39.679Z,40.10
2024-03-05T15:49:06.211Z,40.10
2024-03-05T15:51:32.715Z,39.80
2024-03-05T15:53:59.209Z,40.20
2024-03-05T15:56:25.723Z,40.50
2024-03-05T15:58:52.435Z,40.10
2024-03-05T16:01:18.963Z,40.40
2024-03-05T16:03:57.680Z,40.10
2024-03-05T16:06:32.325Z,40.20
2024-03-05T16:08:58.899Z,39.90
2024-03-05T16:11:25.522Z,39.90
2024-03-05T16:16:19.408Z,40.30
2024-03-05T16:18:45.929Z,39.90
2024-03-05T16:23:39.458Z,40.10
2024-03-05T16:26:06.085Z,40.10
2024-03-05T16:30:59.769Z,39.70
2024-03-05T16:33:26.352Z,40.10
2024-03-05T16:35:52.923Z,40.60
2024-03-05T16:38:19.500Z,40.40
2024-03-05T16:40:46.328Z,40.40
2024-03-05T16:45:40.092Z,39.60
2024-03-05T16:48:07.007Z,40.30
2024-03-05T16:50:33.702Z,40.50
2024-03-05T16:53:00.486Z,40.40
2024-03-05T16:57:54.257Z,40.10
2024-03-05T17:00:20.795Z,40.30
2024-03-05T17:05:14.428Z,40.20
2024-03-05T17:07:41.040Z,40.50
2024-03-05T17:10:07.637Z,40.20
2024-03-05T17:12:34.140Z,39.80
2024-03-05T17:15:00.640Z,39.90
2024-03-05T17:17:27.223Z,40.00
2024-03-05T17:19:53.807Z,39.80
2024-03-05T17:22:20.315Z,40.20
2024-03-05T17:24:46.918Z,40.30
2024-03-05T17:27:13.486Z,39.90
2024-03-05T17:29:39.985Z,39.80
2024-03-05T17:32:06.568Z,40.00
2024-03-05T17:34:33.141Z,40.40
2024-03-05T17:39:26.751Z,39.70
2024-03-05T17:41:53.253Z,39.70
2024-03-05T17:44:19.873Z,40.00
2024-03-05T17:46:46.477Z,40.00
2024-03-05T17:49:13.002Z,39.80
2024-03-05T17:51:39.542Z,39.50
2024-03-05T17:54:06.070Z,40.00
2024-03-05T17:56:32.603Z,39.80
2024-03-05T17:58:59.277Z,39.90
2024-03-05T18:01:25.905Z,39.60
2024-03-05T18:03:52.513Z,39.80
2024-03-05T18:06:19.026Z,39.70
2024-03-05T18:08:45.532Z,39.80
2024-03-05T18:11:12.146Z,40.40
2024-03-05T18:13:38.755Z,39.80
2024-03-05T18:16:05.270Z,39.70
2024-03-05T18:18:31.768Z,39.60
2024-03-05T18:20:58.318Z,39.80
2024-03-05T18:23:24.873Z,39.40
2024-03-05T18:25:51.409Z,39.70
2024-03-05T18:28:18.013Z,39.80
2024-03-05T18:30:44.557Z,40.10
2024-03-05T18:33:11.078Z,40.20
2024-03-05T18:35:37.741Z,40.00
2024-03-05T18:38:13.120Z,39.90
2024-03-05T18:40:47.694Z,40.00
2024-03-05T18:45:41.330Z,40.20
2024-03-05T18:50:35.394Z,40.10
2024-03-05T18:53:04.612Z,39.80
2024-03-05T18:55:33.356Z,40.00
2024-03-05T18:57:59.939Z,40.00
2024-03-05T19:02:53.480Z,39.50
2024-03-05T19:05:20.510Z,39.80
2024-03-05T19:07:47.170Z,40.70
2024-03-05T19:10:13.738Z,40.40
2024-03-05T19:12:40.268Z,40.20
2024-03-05T19:17:33.961Z,40.20
2024-03-05T19:20:00.569Z,40.70
2024-03-05T19:24:54.259Z,40.50
2024-03-05T19:27:20.750Z,40.20
2024-03-05T19:29:47.248Z,40.00
2024-03-05T19:32:13.870Z,40.40
2024-03-05T19:34:40.461Z,40.00
2024-03-05T19:37:07.062Z,39.80
2024-03-05T19:42:00.600Z,40.00
2024-03-05T19:44:27.278Z,40.00
2024-03-05T19:49:20.874Z,39.80
2024-03-05T19:51:47.372Z,40.20
2024-03-05T19:56:40.910Z,40.40
2024-03-05T19:59:07.441Z,39.50
2024-03-05T20:01:34.024Z,40.20
2024-03-05T20:04:00.585Z,39.20
2024-03-05T20:06:27.172Z,39.40
2024-03-05T20:08:53.696Z,39.10
2024-03-05T20:11:20.359Z,39.60
2024-03-05T20:13:46.956Z,39.70
2024-03-05T20:18:40.580Z,39.60
2024-03-05T20:21:07.111Z,39.70
2024-03-05T20:23:33.647Z,39.50
2024-03-05T20:26:00.225Z,39.60
2024-03-05T20:28:26.768Z,39.60
2024-03-05T20:30:53.407Z,39.70
2024-03-05T20:33:20.011Z,39.60
2024-03-05T20:35:46.514Z,39.50
2024-03-05T20:40:40.197Z,39.40
2024-03-05T20:43:07.980Z,39.20
2024-03-05T20:45:35.897Z,39.00
2024-03-05T20:48:02.521Z,39.50
2024-03-05T20:50:29.053Z,39.40
2024-03-05T21:00:16.865Z,39.30
2024-03-05T21:02:43.403Z,39.20
2024-03-05T21:05:10.252Z,39.00
2024-03-05T21:07:36.853Z,39.00
2024-03-05T21:10:04.583Z,39.30
2024-03-05T21:14:59.259Z,39.20
2024-03-05T21:17:25.894Z,39.50
2024-03-05T21:19:52.477Z,39.30
2024-03-05T21:22:19.016Z,39.40
2024-03-05T21:24:45.493Z,39.10
2024-03-05T21:27:20.343Z,39.10
2024-03-05T21:29:48.257Z,38.80
2024-03-05T21:34:41.845Z,39.10
2024-03-05T21:37:08.353Z,39.00
2024-03-05T21:39:34.850Z,39.10
2024-03-05T21:42:01.599Z,39.30
2024-03-05T21:44:35.050Z,38.70
2024-03-05T21:47:08.264Z,39.70
2024-03-05T21:49:34.865Z,39.60
2024-03-05T21:54:28.515Z,39.00
2024-03-05T21:56:55.031Z,39.40
2024-03-05T21:59:21.550Z,39.10
2024-03-05T22:01:48.132Z,39.20
2024-03-05T22:04:14.727Z,39.10
2024-03-05T22:06:41.262Z,39.20
2024-03-05T22:09:07.760Z,39.40
2024-03-05T22:11:34.299Z,38.40
2024-03-05T22:18:55.028Z,38.90
2024-03-05T22:21:21.547Z,39.00
2024-03-05T22:23:48.068Z,39.00
2024-03-05T22:26:14.630Z,38.10
2024-03-05T22:28:41.317Z,39.00
2024-03-05T22:31:07.863Z,38.90
2024-03-05T22:33:34.397Z,38.90
2024-03-05T22:36:00.942Z,39.00
2024-03-05T22:38:27.501Z,38.70
2024-03-05T22:40:54.118Z,39.10
2024-03-05T22:43:20.650Z,38.80
2024-03-05T22:45:47.161Z,38.70
2024-03-05T22:48:13.710Z,38.40
2024-03-05T22:50:40.225Z,38.80
2024-03-05T22:55:33.859Z,38.90
2024-03-05T22:58:00.368Z,39.00
2024-03-05T23:02:55.916Z,38.40
2024-03-05T23:05:22.509Z,38.70
2024-03-05T23:07:49.227Z,38.90
2024-03-05T23:10:15.822Z,39.00
2024-03-05T23:12:42.362Z,38.40
2024-03-05T23:15:08.877Z,38.70
2024-03-05T23:17:35.449Z,39.10
2024-03-05T23:20:02.032Z,38.30
2024-03-05T23:22:28.650Z,38.70
2024-03-05T23:24:55.217Z,38.60
2024-03-05T23:27:21.800Z,38.60
2024-03-05T23:29:48.595Z,38.50
2024-03-05T23:32:15.118Z,38.40
2024-03-05T23:34:41.750Z,38.60
2024-03-05T23:37:08.266Z,38.40
2024-03-05T23:39:34.836Z,38.70
2024-03-05T23:42:01.394Z,38.70
2024-03-05T23:44:27.949Z,37.80
2024-03-05T23:46:54.518Z,38.80
2024-03-05T23:49:21.048Z,38.60
2024-03-05T23:51:47.593Z,38.60
2024-03-05T23:54:14.106Z,38.60
2024-03-05T23:56:40.594Z,38.40
2024-03-05T23:59:07.125Z,38.70
